createdAt,value
2022-08-12T00:00:34.644Z,41.12
2022-08-12T00:03:21.086Z,40.75
2022-08-12T00:06:06.148Z,40.94
2022-08-12T00:08:51.711Z,41.07
2022-08-12T00:11:36.643Z,41.11
2022-08-12T00:14:21.632Z,40.86
2022-08-12T00:17:06.607Z,41.14
2022-08-12T00:19:51.621Z,40.79
2022-08-12T00:22:36.715Z,40.77
2022-08-12T00:25:55.795Z,40.92
2022-08-12T00:28:27.532Z,41.09
2022-08-12T00:31:12.563Z,41.18
2022-08-12T00:33:58.015Z,41.40
2022-08-12T00:36:45.139Z,41.48
2022-08-12T00:39:30.158Z,41.57
2022-08-12T00:42:12.147Z,41.55
2022-08-12T00:44:39.901Z,41.50
2022-08-12T00:47:07.639Z,41.80
2022-08-12T00:49:51.933Z,41.65
2022-08-12T00:52:19.541Z,42.12
2022-08-12T00:54:47.754Z,41.58
2022-08-12T00:57:15.391Z,41.99
2022-08-12T00:59:43.273Z,42.14
2022-08-12T01:02:12.670Z,42.07
2022-08-12T01:04:58.445Z,41.73
2022-08-12T01:07:43.483Z,41.88
2022-08-12T01:10:29.673Z,42.49
2022-08-12T01:13:07.715Z,42.34
2022-08-12T01:15:46.741Z,42.25
2022-08-12T01:18:14.326Z,43.20
2022-08-12T01:20:42.455Z,42.62
2022-08-12T01:23:10.106Z,42.99
2022-08-12T01:25:55.593Z,43.34
2022-08-12T01:28:24.153Z,43.07
2022-08-12T01:30:51.728Z,42.97
2022-08-12T01:33:20.644Z,43.13
2022-08-12T01:35:57.920Z,43.29
2022-08-12T01:38:35.817Z,43.07
2022-08-12T01:41:03.879Z,43.16
2022-08-12T01:43:31.646Z,43.71
2022-08-12T01:45:59.659Z,43.56
2022-08-12T01:48:27.269Z,43.78
2022-08-12T01:50:55.116Z,43.98
2022-08-12T01:53:28.945Z,43.67
2022-08-12T01:56:16.521Z,44.04
2022-08-12T01:58:58.426Z,43.88
2022-08-12T02:01:26.062Z,44.12
2022-08-12T02:07:20.461Z,44.50
2022-08-12T02:10:05.423Z,44.51
2022-08-12T02:12:34.801Z,44.83
2022-08-12T02:15:02.871Z,44.60
2022-08-12T02:17:55.180Z,44.98
2022-08-12T02:20:18.141Z,45.09
2022-08-12T02:22:45.872Z,44.67
2022-08-12T02:25:14.031Z,44.69
2022-08-12T02:27:41.621Z,44.85
2022-08-12T02:30:09.269Z,44.90
2022-08-12T02:32:36.860Z,45.01
2022-08-12T02:35:04.488Z,44.65
2022-08-12T02:37:32.252Z,44.98
2022-08-12T02:40:00.565Z,45.34
2022-08-12T02:42:29.137Z,45.29
2022-08-12T02:44:58.248Z,45.36
2022-08-12T02:47:59.736Z,45.18
2022-08-12T02:50:13.449Z,45.12
2022-08-12T02:52:41.415Z,45.73
2022-08-12T02:55:09.630Z,45.90
2022-08-12T02:57:37.363Z,45.72
2022-08-12T03:00:07.841Z,45.47
2022-08-12T03:02:35.710Z,45.69
2022-08-12T03:05:03.771Z,45.45
2022-08-12T03:07:55.838Z,45.20
2022-08-12T03:10:25.148Z,45.64
2022-08-12T03:13:07.358Z,45.87
2022-08-12T03:15:35.709Z,46.00
2022-08-12T03:18:25.832Z,46.23
2022-08-12T03:20:51.109Z,46.18
2022-08-12T03:23:29.012Z,46.44
2022-08-12T03:25:59.114Z,46.39
2022-08-12T03:28:44.195Z,46.37
2022-08-12T03:31:12.242Z,46.60
2022-08-12T03:33:39.845Z,46.38
2022-08-12T03:36:08.274Z,46.52
2022-08-12T03:38:37.315Z,46.85
2022-08-12T03:41:23.902Z,46.89
2022-08-12T03:44:09.035Z,46.40
2022-08-12T03:46:54.041Z,46.96
2022-08-12T03:49:39.079Z,46.95
2022-08-12T03:52:24.083Z,46.61
2022-08-12T03:55:09.428Z,46.86
2022-08-12T03:57:54.693Z,46.28
2022-08-12T04:00:24.821Z,46.88
2022-08-12T04:02:59.209Z,46.59
2022-08-12T04:05:54.503Z,46.83
2022-08-12T04:08:14.819Z,46.84
2022-08-12T04:10:56.274Z,46.84
2022-08-12T04:13:25.689Z,46.92
2022-08-12T04:15:53.280Z,46.76
2022-08-12T04:18:20.880Z,47.37
2022-08-12T04:20:50.177Z,47.56
2022-08-12T04:23:17.948Z,46.84
2022-08-12T04:25:45.978Z,46.87
2022-08-12T04:28:14.123Z,46.90
2022-08-12T04:30:41.815Z,47.49
2022-08-12T04:33:10.171Z,47.40
2022-08-12T04:35:38.352Z,47.30
2022-08-12T04:38:06.483Z,47.46
2022-08-12T04:40:34.171Z,47.07
2022-08-12T04:43:02.364Z,46.67
2022-08-12T04:45:30.311Z,47.16
2022-08-12T04:47:58.132Z,46.54
2022-08-12T04:50:33.846Z,46.63
2022-08-12T04:53:04.035Z,46.21
2022-08-12T04:55:31.971Z,46.25
2022-08-12T04:58:01.143Z,46.60
2022-08-12T05:00:28.835Z,46.24
2022-08-12T05:02:57.252Z,46.02
2022-08-12T05:05:24.900Z,46.11
2022-08-12T05:07:54.770Z,46.45
2022-08-12T05:10:33.634Z,46.22
2022-08-12T05:13:03.719Z,46.10
2022-08-12T05:15:31.412Z,46.54
2022-08-12T05:18:02.192Z,46.20
2022-08-12T05:20:48.502Z,45.84
2022-08-12T05:23:16.335Z,46.06
2022-08-12T05:25:46.242Z,45.53
2022-08-12T05:28:14.177Z,45.74
2022-08-12T05:30:42.834Z,45.32
2022-08-12T05:33:10.645Z,45.42
2022-08-12T05:35:40.104Z,45.37
2022-08-12T05:38:25.429Z,44.97
2022-08-12T05:40:53.114Z,45.19
2022-08-12T05:43:21.095Z,44.85
2022-08-12T05:45:49.690Z,44.81
2022-08-12T05:48:17.271Z,44.62
2022-08-12T05:50:45.704Z,44.50
2022-08-12T05:53:13.379Z,44.75
2022-08-12T05:55:41.757Z,44.26
2022-08-12T05:58:09.413Z,44.15
2022-08-12T06:00:37.291Z,43.71
2022-08-12T06:03:06.223Z,43.51
2022-08-12T06:05:52.574Z,43.20
2022-08-12T06:08:22.416Z,43.44
2022-08-12T06:10:50.871Z,42.99
2022-08-12T06:13:27.937Z,42.80
2022-08-12T06:16:07.535Z,42.55
2022-08-12T06:18:35.326Z,42.61
2022-08-12T06:21:02.999Z,42.26
2022-08-12T06:23:30.737Z,42.32
2022-08-12T06:25:58.795Z,42.08
2022-08-12T06:28:26.524Z,41.84
2022-08-12T06:33:59.833Z,41.53
2022-08-12T06:36:33.853Z,41.65
2022-08-12T06:39:01.537Z,41.19
2022-08-12T06:42:22.702Z,41.12
2022-08-12T06:44:34.526Z,41.19
2022-08-12T06:47:02.263Z,40.67
2022-08-12T06:49:36.532Z,40.50
2022-08-12T06:52:04.658Z,40.96
2022-08-12T06:54:34.840Z,40.40
2022-08-12T06:57:04.614Z,39.78
2022-08-12T06:59:42.004Z,39.73
2022-08-12T07:02:11.222Z,39.94
2022-08-12T07:04:39.770Z,39.55
2022-08-12T07:07:08.273Z,39.06
2022-08-12T07:10:06.653Z,39.33
2022-08-12T07:12:26.933Z,39.08
2022-08-12T07:14:55.946Z,38.91
2022-08-12T07:17:23.819Z,39.02
2022-08-12T07:19:52.194Z,38.47
2022-08-12T07:22:23.405Z,38.36
2022-08-12T07:25:11.772Z,38.66
2022-08-12T07:27:40.906Z,38.17
2022-08-12T07:30:08.666Z,37.60
2022-08-12T07:32:36.497Z,37.85
2022-08-12T07:35:04.681Z,38.00
2022-08-12T07:37:35.186Z,37.72
2022-08-12T07:40:03.015Z,37.88
2022-08-12T07:42:31.466Z,37.05
2022-08-12T07:44:59.934Z,37.40
2022-08-12T07:47:28.083Z,36.83
2022-08-12T07:50:04.638Z,36.76
2022-08-12T07:52:34.006Z,37.07
2022-08-12T07:55:02.185Z,36.14
2022-08-12T07:57:29.893Z,36.80
2022-08-12T07:59:57.602Z,36.20
2022-08-12T08:02:26.745Z,36.10
2022-08-12T08:04:57.837Z,36.40
2022-08-12T08:07:25.844Z,35.98
2022-08-12T08:09:58.417Z,36.21
2022-08-12T08:12:44.737Z,35.42
2022-08-12T08:15:13.324Z,35.33
2022-08-12T08:17:40.955Z,35.00
2022-08-12T08:20:10.282Z,35.05
2022-08-12T08:22:42.607Z,34.67
2022-08-12T08:25:35.191Z,34.85
2022-08-12T08:27:58.520Z,34.53
2022-08-12T08:30:26.184Z,34.34
2022-08-12T08:32:53.836Z,34.00
2022-08-12T08:35:23.302Z,33.69
2022-08-12T08:37:53.748Z,33.92
2022-08-12T08:40:39.462Z,33.88
2022-08-12T08:43:07.411Z,33.10
2022-08-12T08:45:35.079Z,33.00
2022-08-12T08:48:02.679Z,33.45
2022-08-12T08:50:30.406Z,33.36
2022-08-12T08:52:59.376Z,33.13
2022-08-12T08:55:42.470Z,32.92
2022-08-12T08:58:15.530Z,32.99
2022-08-12T09:00:43.721Z,32.70
2022-08-12T09:05:09.528Z,32.10
2022-08-12T09:06:05.633Z,31.84
2022-08-12T09:08:34.669Z,32.18
2022-08-12T09:12:11.131Z,32.13
2022-08-12T09:14:18.609Z,31.58
2022-08-12T09:16:50.111Z,31.34
2022-08-12T09:19:27.562Z,31.73
2022-08-12T09:21:57.421Z,31.22
2022-08-12T09:24:30.070Z,31.42
2022-08-12T09:27:02.584Z,30.86
2022-08-12T09:30:10.936Z,30.89
2022-08-12T09:32:31.296Z,30.65
2022-08-12T09:35:06.625Z,30.38
2022-08-12T09:37:58.223Z,30.18
2022-08-12T09:41:02.552Z,30.50
2022-08-12T09:43:32.978Z,30.32
2022-08-12T09:46:06.011Z,29.89
2022-08-12T09:48:56.223Z,29.58
2022-08-12T09:51:24.826Z,29.01
2022-08-12T09:54:30.470Z,28.01
2022-08-12T09:56:59.369Z,27.08
2022-08-12T10:00:17.722Z,26.92
2022-08-12T10:02:45.681Z,25.82
2022-08-12T10:05:04.862Z,26.29
2022-08-12T10:07:40.503Z,25.74
2022-08-12T10:10:22.514Z,25.05
2022-08-12T10:13:12.136Z,24.93
2022-08-12T10:16:02.773Z,24.85
2022-08-12T10:18:35.319Z,23.94
2022-08-12T10:21:03.549Z,23.58
2022-08-12T10:23:40.087Z,23.93
2022-08-12T10:26:37.592Z,23.58
2022-08-12T10:30:40.712Z,23.46
2022-08-12T10:32:21.457Z,22.99
2022-08-12T10:34:53.474Z,22.84
2022-08-12T10:38:35.920Z,22.41
2022-08-12T10:40:19.268Z,22.14
2022-08-12T10:43:05.764Z,21.89
2022-08-12T10:45:33.455Z,21.49
2022-08-12T10:48:23.067Z,21.56
2022-08-12T10:51:01.185Z,21.27
2022-08-12T10:53:45.595Z,21.38
2022-08-12T10:56:14.326Z,21.54
2022-08-12T10:58:45.980Z,21.31
2022-08-12T11:01:49.388Z,20.81
2022-08-12T11:04:28.470Z,21.03
2022-08-12T11:07:08.851Z,19.85
2022-08-12T11:10:00.751Z,20.17
2022-08-12T11:12:56.079Z,20.19
2022-08-12T11:15:21.319Z,19.82
2022-08-12T11:17:54.579Z,19.99
2022-08-12T11:20:24.386Z,18.97
2022-08-12T11:22:59.467Z,19.39
2022-08-12T11:25:55.750Z,19.19
2022-08-12T11:28:15.995Z,19.39
2022-08-12T11:30:44.104Z,19.28
2022-08-12T11:33:24.020Z,18.79
2022-08-12T11:35:59.876Z,18.29
2022-08-12T11:38:27.916Z,18.18
2022-08-12T11:40:55.586Z,18.26
2022-08-12T11:43:25.661Z,18.11
2022-08-12T11:45:58.987Z,18.42
2022-08-12T11:48:27.342Z,18.56
2022-08-12T11:50:58.911Z,18.21
2022-08-12T11:53:56.620Z,18.37
2022-08-12T11:56:14.800Z,17.93
2022-08-12T12:01:58.789Z,17.69
2022-08-12T12:04:28.803Z,17.75
2022-08-12T12:07:06.978Z,17.64
2022-08-12T12:09:50.716Z,17.39
2022-08-12T12:12:21.457Z,17.32
2022-08-12T12:14:54.660Z,17.29
2022-08-12T12:17:23.880Z,17.09
2022-08-12T12:19:51.530Z,17.27
2022-08-12T12:22:26.796Z,16.67
2022-08-12T12:24:59.012Z,16.62
2022-08-12T12:28:04.832Z,17.26
2022-08-12T12:30:29.753Z,16.43
2022-08-12T12:32:57.953Z,17.24
2022-08-12T12:36:06.504Z,16.58
2022-08-12T12:38:14.632Z,16.75
2022-08-12T12:40:43.848Z,16.63
2022-08-12T12:43:12.810Z,16.83
2022-08-12T12:45:44.655Z,16.71
2022-08-12T12:48:14.023Z,17.15
2022-08-12T12:50:45.786Z,17.03
2022-08-12T12:54:05.768Z,17.29
2022-08-12T12:56:12.435Z,18.01
2022-08-12T12:58:43.627Z,17.58
2022-08-12T13:01:26.675Z,18.35
2022-08-12T13:04:02.065Z,18.11
2022-08-12T13:06:31.474Z,18.56
2022-08-12T13:09:02.496Z,18.68
2022-08-12T13:11:35.451Z,19.08
2022-08-12T13:14:12.830Z,19.24
2022-08-12T13:16:44.597Z,19.39
2022-08-12T13:19:12.323Z,19.42
2022-08-12T13:22:03.323Z,20.19
2022-08-12T13:24:32.237Z,19.70
2022-08-12T13:26:59.942Z,20.07
2022-08-12T13:29:31.019Z,19.93
2022-08-12T13:32:18.675Z,20.61
2022-08-12T13:34:52.908Z,20.17
2022-08-12T13:37:44.002Z,19.74
2022-08-12T13:40:20.125Z,19.71
2022-08-12T13:42:51.113Z,19.84
2022-08-12T13:45:18.868Z,20.19
2022-08-12T13:47:46.506Z,19.98
2022-08-12T13:50:14.171Z,19.50
2022-08-12T13:52:43.653Z,19.74
2022-08-12T13:55:15.397Z,19.39
2022-08-12T13:57:44.641Z,18.92
2022-08-12T14:00:14.900Z,19.21
2022-08-12T14:02:44.457Z,19.54
2022-08-12T14:05:37.825Z,19.02
2022-08-12T14:08:01.626Z,19.12
2022-08-12T14:10:39.027Z,19.81
2022-08-12T14:14:03.576Z,19.76
2022-08-12T14:16:06.382Z,19.68
2022-08-12T14:18:35.530Z,19.67
2022-08-12T14:21:05.387Z,19.78
2022-08-12T14:24:04.342Z,19.55
2022-08-12T14:26:25.088Z,19.75
2022-08-12T14:28:57.451Z,19.90
2022-08-12T14:31:29.651Z,19.58
2022-08-12T14:33:59.960Z,19.87
2022-08-12T14:36:27.588Z,19.08
2022-08-12T14:38:56.789Z,19.59
2022-08-12T14:41:37.306Z,19.20
2022-08-12T14:44:59.016Z,19.51
2022-08-12T14:47:00.999Z,19.18
2022-08-12T14:50:37.369Z,18.76
2022-08-12T14:52:55.607Z,18.44
2022-08-12T14:58:01.069Z,18.40
2022-08-12T15:00:52.197Z,18.57
2022-08-12T15:03:21.853Z,18.18
2022-08-12T15:06:06.225Z,18.18
2022-08-12T15:08:39.090Z,18.32
2022-08-12T15:11:09.328Z,17.75
2022-08-12T15:13:39.597Z,17.23
2022-08-12T15:16:07.795Z,16.63
2022-08-12T15:18:37.621Z,16.64
2022-08-12T15:21:08.818Z,16.63
2022-08-12T15:23:55.028Z,16.63
2022-08-12T15:26:28.377Z,16.72
2022-08-12T15:28:57.562Z,17.00
2022-08-12T15:31:28.234Z,17.06
2022-08-12T15:34:13.153Z,16.90
2022-08-12T15:36:53.665Z,17.07
2022-08-12T15:39:23.072Z,17.06
2022-08-12T15:41:55.546Z,16.97
2022-08-12T15:44:37.763Z,17.16
2022-08-12T15:47:09.195Z,16.72
2022-08-12T15:49:55.004Z,16.98
2022-08-12T15:52:27.811Z,16.64
2022-08-12T15:54:58.665Z,17.16
2022-08-12T15:57:26.781Z,16.51
2022-08-12T16:00:06.760Z,16.88
2022-08-12T16:02:35.570Z,16.83
2022-08-12T16:06:13.066Z,16.32
2022-08-12T16:07:52.592Z,16.22
2022-08-12T16:10:20.223Z,16.28
2022-08-12T16:12:54.667Z,16.34
2022-08-12T16:15:23.003Z,16.14
2022-08-12T16:18:25.873Z,16.01
2022-08-12T16:20:40.736Z,15.66
2022-08-12T16:23:36.386Z,15.51
2022-08-12T16:26:14.194Z,15.52
2022-08-12T16:28:43.451Z,15.86
2022-08-12T16:31:14.395Z,16.24
2022-08-12T16:33:58.903Z,16.96
2022-08-12T16:36:28.854Z,17.34
2022-08-12T16:38:56.637Z,18.80
2022-08-12T16:41:28.160Z,19.57
2022-08-12T16:43:55.999Z,20.07
2022-08-12T16:46:32.217Z,20.45
2022-08-12T16:49:04.115Z,21.37
2022-08-12T16:51:40.170Z,21.29
2022-08-12T16:54:12.675Z,21.42
2022-08-12T16:56:54.928Z,21.73
2022-08-12T16:59:53.399Z,21.84
2022-08-12T17:02:18.035Z,22.39
2022-08-12T17:05:03.211Z,22.11
2022-08-12T17:07:36.143Z,22.48
2022-08-12T17:10:04.934Z,22.42
2022-08-12T17:12:32.743Z,22.90
2022-08-12T17:15:00.817Z,23.00
2022-08-12T17:17:39.200Z,23.18
2022-08-12T17:20:34.033Z,23.36
2022-08-12T17:22:57.733Z,23.37
2022-08-12T17:25:25.938Z,23.10
2022-08-12T17:27:57.778Z,23.31
2022-08-12T17:30:28.941Z,23.70
2022-08-12T17:33:02.452Z,23.58
2022-08-12T17:35:36.921Z,23.73
2022-08-12T17:38:05.352Z,23.83
2022-08-12T17:40:35.759Z,23.98
2022-08-12T17:43:56.047Z,23.93
2022-08-12T17:45:52.937Z,23.83
2022-08-12T17:48:21.948Z,24.09
2022-08-12T17:50:52.033Z,24.45
2022-08-12T17:53:19.737Z,24.10
2022-08-12T17:55:49.727Z,24.30
2022-08-12T17:58:17.615Z,24.59
2022-08-12T18:00:45.811Z,24.47
2022-08-12T18:04:04.190Z,24.24
2022-08-12T18:06:08.732Z,24.42
2022-08-12T18:08:53.462Z,24.18
2022-08-12T18:12:04.320Z,24.55
2022-08-12T18:14:28.731Z,24.58
2022-08-12T18:16:57.173Z,25.48
2022-08-12T18:19:24.986Z,24.89
2022-08-12T18:22:01.076Z,25.21
2022-08-12T18:24:30.903Z,25.05
2022-08-12T18:26:58.551Z,25.34
2022-08-12T18:29:27.122Z,24.93
2022-08-12T18:32:44.194Z,25.08
2022-08-12T18:35:01.107Z,25.61
2022-08-12T18:37:42.359Z,25.95
2022-08-12T18:40:27.762Z,25.56
2022-08-12T18:42:57.142Z,26.14
2022-08-12T18:45:27.369Z,25.78
2022-08-12T18:48:01.622Z,26.23
2022-08-12T18:50:49.419Z,25.68
2022-08-12T18:54:05.268Z,25.80
2022-08-12T18:56:07.512Z,26.42
2022-08-12T18:59:00.043Z,26.85
2022-08-12T19:02:19.499Z,26.58
2022-08-12T19:04:16.237Z,26.30
2022-08-12T19:06:46.748Z,26.58
2022-08-12T19:09:15.185Z,26.86
2022-08-12T19:12:00.511Z,27.04
2022-08-12T19:14:28.338Z,27.09
2022-08-12T19:16:56.058Z,27.38
2022-08-12T19:19:25.599Z,27.23
2022-08-12T19:21:56.602Z,27.72
2022-08-12T19:24:43.268Z,27.28
2022-08-12T19:27:11.070Z,27.96
2022-08-12T19:29:44.154Z,27.92
2022-08-12T19:32:12.292Z,28.02
2022-08-12T19:36:00.885Z,28.70
2022-08-12T19:38:02.657Z,28.66
2022-08-12T19:40:31.377Z,28.61
2022-08-12T19:43:02.009Z,28.79
2022-08-12T19:45:41.866Z,28.69
2022-08-12T19:48:11.067Z,29.10
2022-08-12T19:50:44.875Z,29.06
2022-08-12T19:53:18.757Z,29.30
2022-08-12T19:55:51.895Z,28.95
2022-08-12T19:58:20.737Z,29.39
2022-08-12T20:00:56.307Z,29.12
2022-08-12T20:03:38.584Z,29.40
2022-08-12T20:06:14.188Z,29.23
2022-08-12T20:08:48.984Z,29.73
2022-08-12T20:12:14.575Z,30.01
2022-08-12T20:14:11.117Z,30.25
2022-08-12T20:16:57.801Z,29.86
2022-08-12T20:19:52.910Z,29.94
2022-08-12T20:22:16.630Z,30.23
2022-08-12T20:24:54.934Z,30.09
2022-08-12T20:27:29.646Z,30.42
2022-08-12T20:30:13.795Z,30.31
2022-08-12T20:32:48.017Z,30.50
2022-08-12T20:35:18.891Z,30.83
2022-08-12T20:38:06.178Z,30.85
2022-08-12T20:40:40.316Z,30.92
2022-08-12T20:43:08.764Z,30.82
2022-08-12T20:45:50.581Z,30.88
2022-08-12T20:48:21.740Z,31.10
2022-08-12T20:50:53.617Z,31.07
2022-08-12T20:53:26.514Z,31.57
2022-08-12T20:56:01.517Z,31.00
2022-08-12T20:58:29.305Z,31.74
2022-08-12T21:01:00.233Z,31.60
2022-08-12T21:03:52.582Z,31.83
2022-08-12T21:06:43.125Z,31.85
2022-08-12T21:09:10.708Z,31.85
2022-08-12T21:11:38.442Z,32.18
2022-08-12T21:14:06.352Z,32.20
2022-08-12T21:16:38.888Z,31.92
2022-08-12T21:19:07.914Z,32.03
2022-08-12T21:21:40.425Z,32.36
2022-08-12T21:24:18.157Z,32.55
2022-08-12T21:26:53.293Z,32.58
2022-08-12T21:29:21.413Z,32.33
2022-08-12T21:32:36.950Z,32.66
2022-08-12T21:34:38.439Z,32.90
2022-08-12T21:37:26.729Z,32.53
2022-08-12T21:39:56.504Z,33.19
2022-08-12T21:42:26.276Z,32.61
2022-08-12T21:45:47.526Z,32.62
2022-08-12T21:47:43.530Z,33.14
2022-08-12T21:50:11.310Z,32.80
2022-08-12T21:52:42.296Z,33.50
2022-08-12T21:55:19.009Z,33.47
2022-08-12T21:57:50.786Z,33.56
2022-08-12T22:00:21.889Z,33.28
2022-08-12T22:03:07.757Z,33.58
2022-08-12T22:05:53.050Z,33.26
2022-08-12T22:08:25.381Z,33.75
2022-08-12T22:10:56.324Z,33.57
2022-08-12T22:14:04.159Z,33.79
2022-08-12T22:16:12.112Z,33.69
2022-08-12T22:18:39.822Z,34.15
2022-08-12T22:21:09.088Z,34.20
2022-08-12T22:24:04.250Z,34.31
2022-08-12T22:26:29.406Z,34.15
2022-08-12T22:29:34.854Z,34.32
2022-08-12T22:32:02.517Z,33.70
2022-08-12T22:34:33.298Z,34.19
2022-08-12T22:37:01.433Z,33.93
2022-08-12T22:39:31.625Z,34.29
2022-08-12T22:42:25.121Z,34.10
2022-08-12T22:45:16.232Z,34.42
2022-08-12T22:47:54.151Z,33.84
2022-08-12T22:50:26.948Z,34.44
2022-08-12T22:53:15.671Z,34.67
2022-08-12T22:55:59.117Z,34.60
2022-08-12T22:58:31.832Z,33.94
2022-08-12T23:01:01.821Z,34.66
2022-08-12T23:03:48.087Z,34.50
2022-08-12T23:06:19.348Z,34.63
2022-08-12T23:08:48.051Z,34.72
2022-08-12T23:11:16.296Z,34.68
2022-08-12T23:13:46.018Z,34.28
2022-08-12T23:16:27.960Z,34.35
2022-08-12T23:18:57.258Z,34.69
2022-08-12T23:21:24.928Z,34.36
2022-08-12T23:24:10.912Z,34.58
2022-08-12T23:26:56.757Z,34.40
2022-08-12T23:29:25.929Z,34.90
2022-08-12T23:32:02.803Z,34.91
2022-08-12T23:34:37.222Z,34.80
2022-08-12T23:37:05.276Z,35.11
2022-08-12T23:40:15.881Z,35.33
2022-08-12T23:42:21.533Z,35.27
2022-08-12T23:45:03.545Z,35.05
2022-08-12T23:47:38.413Z,35.40
2022-08-12T23:50:13.147Z,35.08
2022-08-12T23:52:46.554Z,35.36
2022-08-12T23:55:24.977Z,35.24
2022-08-12T23:58:22.497Z,34.85
